Date,TemperatureHighF,TemperatureAvgF,TemperatureLowF,DewpointHighF,DewpointAvgF,DewpointLowF,HumidityHigh,HumidityAvg,HumidityLow,PressureMaxIn,PressureMinIn,WindSpeedMaxMPH,WindSpeedAvgMPH,GustSpeedMaxMPH,PrecipitationSumIn
2013-5-1,89,56,41,46,36,29,78,52,19,30.29,30.13,29,0,29,0.00
2013-5-2,90,59,44,37,30,22,54,36,15,30.21,29.94,9,0,9,0.00
2013-5-3,94,60,44,48,38,32,66,48,20,30.15,30.01,10,1,10,0.00
2013-5-4,86,58,47,48,40,36,73,55,22,30.10,29.93,13,2,13,0.00
2013-5-5,81,58,47,53,44,38,76,61,36,30.17,30.09,5,0,5,0.00
2013-5-6,96,66,53,58,47,41,75,55,23,30.14,29.86,13,0,13,0.00
2013-5-7,90,63,51,53,44,40,71,52,27,30.05,29.81,28,0,28,0.00
2013-5-8,76,58,51,53,48,-26,83,68,42,29.83,29.65,37,1,37,0.00
2013-5-9,67,52,45,47,41,38,86,68,37,29.82,29.64,12,2,12,0.63
2013-5-10,79,56,49,50,45,42,83,68,33,29.90,29.65,13,2,13,0.18
2013-5-11,62,50,44,48,42,38,84,74,50,29.89,29.75,14,1,14,3.57
2013-5-12,67,49,42,49,42,37,88,76,40,29.99,29.87,11,2,11,0.22
2013-5-13,74,55,48,48,41,34,88,62,28,29.89,29.76,12,2,12,0.00
2013-5-14,53,49,46,45,41,37,88,75,58,29.79,29.21,11,1,11,0.14
2013-5-15,78,50,43,49,40,36,85,70,31,29.52,29.12,14,1,14,0.02
2013-5-16,78,51,42,47,40,36,84,67,32,29.55,29.44,36,0,36,0.00
2013-5-17,56,51,47,44,42,39,81,70,61,29.79,29.54,17,0,17,0.00
2013-5-18,76,55,49,51,43,40,75,64,40,29.78,29.68,7,1,7,0.00
2013-5-19,126,60,49,100,46,42,78,63,32,29.86,29.75,38,0,38,0.00
2013-5-20,65,58,54,56,51,46,82,77,69,29.88,29.81,8,1,8,0.02
2013-5-21,69,58,54,54,49,45,79,73,53,30.05,29.88,12,1,12,0.00
2013-5-22,63,54,48,46,43,34,79,66,45,30.07,29.99,8,1,8,0.00
2013-5-23,78,52,44,47,37,32,71,58,28,29.99,29.85,11,2,11,0.31
2013-5-24,60,46,43,51,39,35,86,78,67,30.02,29.60,13,2,13,1.98
2013-5-25,85,54,42,47,40,36,89,64,26,30.15,30.01,24,1,24,0.00
2013-5-26,93,62,47,46,38,33,67,45,18,30.15,29.91,17,1,17,0.00
2013-5-27,84,59,46,44,39,32,74,49,18,29.91,29.60,17,1,17,0.00
2013-5-28,58,54,51,52,47,40,88,78,53,29.60,29.44,1,0,1,0.45
2013-5-29,56,52,48,50,47,44,85,82,73,29.74,29.54,5,1,5,0.00
2013-5-30,65,55,52,54,50,48,89,82,66,29.98,29.72,23,1,23,0.18
2013-5-31,89,63,52,60,51,46,83,67,35,30.08,29.97,39,1,39,0.00